sensor_id;sensor_type;location;lat;lon;timestamp;temperature;humidity
8591;DHT22;4333;48.322;14.340;2023-09-07T00:00:54;17.90;99.90
8591;DHT22;4333;48.322;14.340;2023-09-07T00:03:24;17.90;99.90
8591;DHT22;4333;48.322;14.340;2023-09-07T00:05:52;17.90;99.90
8591;DHT22;4333;48.322;14.340;2023-09-07T00:08:18;17.90;99.90
8591;DHT22;4333;48.322;14.340;2023-09-07T00:10:44;18.20;99.90
8591;DHT22;4333;48.322;14.340;2023-09-07T00:13:14;18.30;99.90
8591;DHT22;4333;48.322;14.340;2023-09-07T00:15:40;18.30;99.90
8591;DHT22;4333;48.322;14.340;2023-09-07T00:18:05;18.40;99.90
8591;DHT22;4333;48.322;14.340;2023-09-07T00:20:31;18.30;99.90
8591;DHT22;4333;48.322;14.340;2023-09-07T00:23:01;18.00;99.90
8591;DHT22;4333;48.322;14.340;2023-09-07T00:25:28;18.10;99.90
8591;DHT22;4333;48.322;14.340;2023-09-07T00:27:54;18.10;99.90
8591;DHT22;4333;48.322;14.340;2023-09-07T00:30:20;18.10;99.90
8591;DHT22;4333;48.322;14.340;2023-09-07T00:32:45;18.20;99.90
8591;DHT22;4333;48.322;14.340;2023-09-07T00:35:11;18.20;99.90
8591;DHT22;4333;48.322;14.340;2023-09-07T00:37:37;18.10;99.90
8591;DHT22;4333;48.322;14.340;2023-09-07T00:40:04;18.10;99.90
8591;DHT22;4333;48.322;14.340;2023-09-07T00:42:34;18.30;99.90
8591;DHT22;4333;48.322;14.340;2023-09-07T00:45:02;18.30;99.90
8591;DHT22;4333;48.322;14.340;2023-09-07T00:47:28;18.40;99.90
8591;DHT22;4333;48.322;14.340;2023-09-07T00:49:54;18.30;99.40
8591;DHT22;4333;48.322;14.340;2023-09-07T00:52:20;18.30;99.90
8591;DHT22;4333;48.322;14.340;2023-09-07T00:54:46;18.20;99.90
8591;DHT22;4333;48.322;14.340;2023-09-07T00:57:12;18.00;99.90
8591;DHT22;4333;48.322;14.340;2023-09-07T00:59:38;17.80;99.90
8591;DHT22;4333;48.322;14.340;2023-09-07T01:02:03;17.90;99.90
8591;DHT22;4333;48.322;14.340;2023-09-07T01:04:33;17.70;99.90
8591;DHT22;4333;48.322;14.340;2023-09-07T01:09:46;17.50;99.90
8591;DHT22;4333;48.322;14.340;2023-09-07T01:12:16;17.40;99.90
8591;DHT22;4333;48.322;14.340;2023-09-07T01:14:42;17.30;99.90
8591;DHT22;4333;48.322;14.340;2023-09-07T01:17:09;17.30;99.90
8591;DHT22;4333;48.322;14.340;2023-09-07T01:19:36;17.30;99.90
8591;DHT22;4333;48.322;14.340;2023-09-07T01:22:02;17.30;99.90
8591;DHT22;4333;48.322;14.340;2023-09-07T01:24:30;17.10;99.90
8591;DHT22;4333;48.322;14.340;2023-09-07T01:27:00;17.00;99.90
8591;DHT22;4333;48.322;14.340;2023-09-07T01:29:26;16.90;99.90
8591;DHT22;4333;48.322;14.340;2023-09-07T01:31:55;16.80;99.90
8591;DHT22;4333;48.322;14.340;2023-09-07T01:34:20;16.80;99.90
8591;DHT22;4333;48.322;14.340;2023-09-07T01:36:46;16.70;99.90
8591;DHT22;4333;48.322;14.340;2023-09-07T01:39:12;16.70;99.90
8591;DHT22;4333;48.322;14.340;2023-09-07T01:41:37;16.70;99.90
8591;DHT22;4333;48.322;14.340;2023-09-07T01:44:03;16.50;99.90
8591;DHT22;4333;48.322;14.340;2023-09-07T01:46:29;16.50;99.90
8591;DHT22;4333;48.322;14.340;2023-09-07T01:48:55;16.40;99.90
8591;DHT22;4333;48.322;14.340;2023-09-07T01:51:21;16.30;99.90
8591;DHT22;4333;48.322;14.340;2023-09-07T01:53:49;16.20;99.90
8591;DHT22;4333;48.322;14.340;2023-09-07T01:56:16;16.20;99.90
8591;DHT22;4333;48.322;14.340;2023-09-07T01:58:42;16.20;99.90
8591;DHT22;4333;48.322;14.340;2023-09-07T02:01:20;16.30;99.90
8591;DHT22;4333;48.322;14.340;2023-09-07T02:03:46;16.30;99.90
8591;DHT22;4333;48.322;14.340;2023-09-07T02:06:12;16.30;99.90
8591;DHT22;4333;48.322;14.340;2023-09-07T02:08:37;16.30;99.90
8591;DHT22;4333;48.322;14.340;2023-09-07T02:11:05;16.10;99.90
8591;DHT22;4333;48.322;14.340;2023-09-07T02:13:31;16.10;99.90
8591;DHT22;4333;48.322;14.340;2023-09-07T02:15:57;16.00;99.90
8591;DHT22;4333;48.322;14.340;2023-09-07T02:18:22;15.90;99.90
8591;DHT22;4333;48.322;14.340;2023-09-07T02:20:48;15.90;99.90
8591;DHT22;4333;48.322;14.340;2023-09-07T02:23:17;15.80;99.90
8591;DHT22;4333;48.322;14.340;2023-09-07T02:25:42;15.70;99.90
8591;DHT22;4333;48.322;14.340;2023-09-07T02:28:08;15.70;99.90
8591;DHT22;4333;48.322;14.340;2023-09-07T02:30:34;15.70;99.90
8591;DHT22;4333;48.322;14.340;2023-09-07T02:33:02;15.70;99.90
8591;DHT22;4333;48.322;14.340;2023-09-07T02:35:31;15.70;99.90
8591;DHT22;4333;48.322;14.340;2023-09-07T02:37:57;15.70;99.90
8591;DHT22;4333;48.322;14.340;2023-09-07T02:40:25;15.50;99.90
8591;DHT22;4333;48.322;14.340;2023-09-07T02:42:53;15.50;99.90
8591;DHT22;4333;48.322;14.340;2023-09-07T02:45:19;15.50;99.90
8591;DHT22;4333;48.322;14.340;2023-09-07T02:47:47;15.40;99.90
8591;DHT22;4333;48.322;14.340;2023-09-07T02:50:16;15.30;99.90
8591;DHT22;4333;48.322;14.340;2023-09-07T02:52:46;15.30;99.90
8591;DHT22;4333;48.322;14.340;2023-09-07T02:55:12;15.20;99.90
8591;DHT22;4333;48.322;14.340;2023-09-07T02:57:38;15.10;99.90
8591;DHT22;4333;48.322;14.340;2023-09-07T03:00:06;15.10;99.90
8591;DHT22;4333;48.322;14.340;2023-09-07T03:02:36;15.00;99.90
8591;DHT22;4333;48.322;14.340;2023-09-07T03:05:04;15.10;99.90
8591;DHT22;4333;48.322;14.340;2023-09-07T03:07:32;15.10;99.90
8591;DHT22;4333;48.322;14.340;2023-09-07T03:09:59;15.20;99.90
8591;DHT22;4333;48.322;14.340;2023-09-07T03:12:25;15.20;99.90
8591;DHT22;4333;48.322;14.340;2023-09-07T03:14:53;15.10;99.90
8591;DHT22;4333;48.322;14.340;2023-09-07T03:17:24;15.10;99.90
8591;DHT22;4333;48.322;14.340;2023-09-07T03:19:49;15.10;99.90
8591;DHT22;4333;48.322;14.340;2023-09-07T03:22:15;15.00;99.90
8591;DHT22;4333;48.322;14.340;2023-09-07T03:24:41;15.00;99.90
8591;DHT22;4333;48.322;14.340;2023-09-07T03:27:07;15.10;99.90
8591;DHT22;4333;48.322;14.340;2023-09-07T03:29:32;15.20;99.90
8591;DHT22;4333;48.322;14.340;2023-09-07T03:32:01;15.20;99.90
8591;DHT22;4333;48.322;14.340;2023-09-07T03:34:28;15.30;99.90
8591;DHT22;4333;48.322;14.340;2023-09-07T03:36:53;15.30;99.90
8591;DHT22;4333;48.322;14.340;2023-09-07T03:39:22;15.30;99.90
8591;DHT22;4333;48.322;14.340;2023-09-07T03:41:51;15.30;99.90
8591;DHT22;4333;48.322;14.340;2023-09-07T03:44:19;15.40;99.90
8591;DHT22;4333;48.322;14.340;2023-09-07T03:46:45;15.50;99.90
8591;DHT22;4333;48.322;14.340;2023-09-07T03:49:10;15.70;99.90
8591;DHT22;4333;48.322;14.340;2023-09-07T03:51:36;15.60;99.90
8591;DHT22;4333;48.322;14.340;2023-09-07T03:54:03;15.50;99.90
8591;DHT22;4333;48.322;14.340;2023-09-07T03:56:28;15.50;99.90
8591;DHT22;4333;48.322;14.340;2023-09-07T03:58:54;15.50;99.90
8591;DHT22;4333;48.322;14.340;2023-09-07T04:01:22;15.40;99.90
8591;DHT22;4333;48.322;14.340;2023-09-07T04:03:48;15.30;99.90
8591;DHT22;4333;48.322;14.340;2023-09-07T04:06:15;15.30;99.90
8591;DHT22;4333;48.322;14.340;2023-09-07T04:08:41;15.20;99.90
8591;DHT22;4333;48.322;14.340;2023-09-07T04:11:07;15.20;99.90
8591;DHT22;4333;48.322;14.340;2023-09-07T04:13:32;15.20;99.90
8591;DHT22;4333;48.322;14.340;2023-09-07T04:15:58;15.20;99.90
8591;DHT22;4333;48.322;14.340;2023-09-07T04:18:24;15.00;99.90
8591;DHT22;4333;48.322;14.340;2023-09-07T04:20:50;15.00;99.90
8591;DHT22;4333;48.322;14.340;2023-09-07T04:23:15;15.10;99.90
8591;DHT22;4333;48.322;14.340;2023-09-07T04:25:41;15.10;99.90
8591;DHT22;4333;48.322;14.340;2023-09-07T04:28:07;15.10;99.90
8591;DHT22;4333;48.322;14.340;2023-09-07T04:30:41;15.10;99.90
8591;DHT22;4333;48.322;14.340;2023-09-07T04:33:07;15.10;99.90
8591;DHT22;4333;48.322;14.340;2023-09-07T04:35:37;15.20;99.90
8591;DHT22;4333;48.322;14.340;2023-09-07T04:38:05;15.10;99.90
8591;DHT22;4333;48.322;14.340;2023-09-07T04:40:32;15.00;99.90
8591;DHT22;4333;48.322;14.340;2023-09-07T04:43:03;15.10;99.90
8591;DHT22;4333;48.322;14.340;2023-09-07T04:45:31;15.20;99.90
8591;DHT22;4333;48.322;14.340;2023-09-07T04:47:56;15.30;99.90
8591;DHT22;4333;48.322;14.340;2023-09-07T04:50:22;15.20;99.90
8591;DHT22;4333;48.322;14.340;2023-09-07T04:52:47;15.20;99.90
8591;DHT22;4333;48.322;14.340;2023-09-07T04:55:13;15.20;99.90
8591;DHT22;4333;48.322;14.340;2023-09-07T04:57:39;15.20;99.90
8591;DHT22;4333;48.322;14.340;2023-09-07T05:00:06;15.20;99.90
8591;DHT22;4333;48.322;14.340;2023-09-07T05:02:34;15.00;99.90
8591;DHT22;4333;48.322;14.340;2023-09-07T05:05:06;15.00;99.90
8591;DHT22;4333;48.322;14.340;2023-09-07T05:07:34;15.10;99.90
8591;DHT22;4333;48.322;14.340;2023-09-07T05:09:59;15.10;99.90
8591;DHT22;4333;48.322;14.340;2023-09-07T05:12:29;15.00;99.90
8591;DHT22;4333;48.322;14.340;2023-09-07T05:14:59;14.90;99.90
8591;DHT22;4333;48.322;14.340;2023-09-07T05:17:28;14.70;99.90
8591;DHT22;4333;48.322;14.340;2023-09-07T05:19:56;14.60;99.90
8591;DHT22;4333;48.322;14.340;2023-09-07T05:22:21;14.70;99.90
8591;DHT22;4333;48.322;14.340;2023-09-07T05:24:47;14.80;99.90
8591;DHT22;4333;48.322;14.340;2023-09-07T05:27:13;14.90;99.90
8591;DHT22;4333;48.322;14.340;2023-09-07T05:29:38;15.00;99.90
8591;DHT22;4333;48.322;14.340;2023-09-07T05:32:04;15.00;99.90
8591;DHT22;4333;48.322;14.340;2023-09-07T05:34:31;15.10;99.90
8591;DHT22;4333;48.322;14.340;2023-09-07T05:36:57;15.00;99.90
8591;DHT22;4333;48.322;14.340;2023-09-07T05:39:22;15.10;99.90
8591;DHT22;4333;48.322;14.340;2023-09-07T05:41:49;15.10;99.90
8591;DHT22;4333;48.322;14.340;2023-09-07T05:44:15;15.20;99.90
8591;DHT22;4333;48.322;14.340;2023-09-07T05:46:40;15.20;99.90
8591;DHT22;4333;48.322;14.340;2023-09-07T05:49:06;15.10;99.90
8591;DHT22;4333;48.322;14.340;2023-09-07T05:51:34;15.00;99.90
8591;DHT22;4333;48.322;14.340;2023-09-07T05:54:03;14.90;99.90
8591;DHT22;4333;48.322;14.340;2023-09-07T05:56:29;14.90;99.90
8591;DHT22;4333;48.322;14.340;2023-09-07T05:58:55;14.80;99.90
8591;DHT22;4333;48.322;14.340;2023-09-07T06:01:21;14.80;99.90
8591;DHT22;4333;48.322;14.340;2023-09-07T06:03:47;14.80;99.90
8591;DHT22;4333;48.322;14.340;2023-09-07T06:06:14;14.90;99.90
8591;DHT22;4333;48.322;14.340;2023-09-07T06:08:40;15.20;99.90
8591;DHT22;4333;48.322;14.340;2023-09-07T06:11:08;16.50;99.90
8591;DHT22;4333;48.322;14.340;2023-09-07T06:13:34;18.90;99.90
8591;DHT22;4333;48.322;14.340;2023-09-07T06:15:59;21.70;99.90
8591;DHT22;4333;48.322;14.340;2023-09-07T06:18:26;24.20;84.30
8591;DHT22;4333;48.322;14.340;2023-09-07T06:20:53;26.40;38.10
8591;DHT22;4333;48.322;14.340;2023-09-07T06:23:19;28.00;6.20
8591;DHT22;4333;48.322;14.340;2023-09-07T06:25:45;28.20;1.00
8591;DHT22;4333;48.322;14.340;2023-09-07T06:28:10;28.80;1.00
8591;DHT22;4333;48.322;14.340;2023-09-07T06:30:36;28.70;1.00
8591;DHT22;4333;48.322;14.340;2023-09-07T06:33:02;28.00;1.00
8591;DHT22;4333;48.322;14.340;2023-09-07T06:35:27;28.20;1.00
8591;DHT22;4333;48.322;14.340;2023-09-07T06:37:53;28.00;1.00
8591;DHT22;4333;48.322;14.340;2023-09-07T06:40:19;27.00;1.00
8591;DHT22;4333;48.322;14.340;2023-09-07T06:42:45;27.20;1.00
8591;DHT22;4333;48.322;14.340;2023-09-07T06:45:10;28.00;1.00
8591;DHT22;4333;48.322;14.340;2023-09-07T06:47:38;26.80;1.00
8591;DHT22;4333;48.322;14.340;2023-09-07T06:50:05;26.30;1.00
8591;DHT22;4333;48.322;14.340;2023-09-07T06:52:31;26.90;1.00
8591;DHT22;4333;48.322;14.340;2023-09-07T06:54:56;26.90;1.00
8591;DHT22;4333;48.322;14.340;2023-09-07T06:57:22;27.30;1.00
8591;DHT22;4333;48.322;14.340;2023-09-07T06:59:48;27.00;1.00
8591;DHT22;4333;48.322;14.340;2023-09-07T07:02:16;28.10;1.00
8591;DHT22;4333;48.322;14.340;2023-09-07T07:04:47;29.10;1.00
8591;DHT22;4333;48.322;14.340;2023-09-07T07:07:12;29.70;1.00
8591;DHT22;4333;48.322;14.340;2023-09-07T07:09:38;30.20;1.00
8591;DHT22;4333;48.322;14.340;2023-09-07T07:12:04;31.10;1.00
8591;DHT22;4333;48.322;14.340;2023-09-07T07:14:30;30.40;1.00
8591;DHT22;4333;48.322;14.340;2023-09-07T07:16:56;29.60;1.00
8591;DHT22;4333;48.322;14.340;2023-09-07T07:19:22;31.00;1.00
8591;DHT22;4333;48.322;14.340;2023-09-07T07:21:50;31.40;1.00
8591;DHT22;4333;48.322;14.340;2023-09-07T07:24:16;32.00;1.00
8591;DHT22;4333;48.322;14.340;2023-09-07T07:26:44;30.80;1.00
8591;DHT22;4333;48.322;14.340;2023-09-07T07:29:09;31.90;1.00
8591;DHT22;4333;48.322;14.340;2023-09-07T07:31:35;32.30;1.00
8591;DHT22;4333;48.322;14.340;2023-09-07T07:34:01;30.70;1.00
8591;DHT22;4333;48.322;14.340;2023-09-07T07:36:27;28.80;1.00
8591;DHT22;4333;48.322;14.340;2023-09-07T07:38:52;28.40;1.00
8591;DHT22;4333;48.322;14.340;2023-09-07T07:41:21;27.80;1.00
8591;DHT22;4333;48.322;14.340;2023-09-07T07:43:46;27.80;1.00
8591;DHT22;4333;48.322;14.340;2023-09-07T07:46:12;26.50;2.80
8591;DHT22;4333;48.322;14.340;2023-09-07T07:48:41;27.40;6.20
8591;DHT22;4333;48.322;14.340;2023-09-07T07:51:07;27.30;1.00
8591;DHT22;4333;48.322;14.340;2023-09-07T07:53:36;26.70;5.50
8591;DHT22;4333;48.322;14.340;2023-09-07T07:56:02;27.10;9.00
8591;DHT22;4333;48.322;14.340;2023-09-07T07:58:32;28.00;7.60
8591;DHT22;4333;48.322;14.340;2023-09-07T08:00:58;29.40;1.00
8591;DHT22;4333;48.322;14.340;2023-09-07T08:03:24;30.00;1.00
8591;DHT22;4333;48.322;14.340;2023-09-07T08:05:50;30.70;1.00
8591;DHT22;4333;48.322;14.340;2023-09-07T08:08:16;31.70;1.00
8591;DHT22;4333;48.322;14.340;2023-09-07T08:10:45;31.40;1.00
8591;DHT22;4333;48.322;14.340;2023-09-07T08:13:12;32.00;1.00
8591;DHT22;4333;48.322;14.340;2023-09-07T08:15:40;31.30;1.00
8591;DHT22;4333;48.322;14.340;2023-09-07T08:18:05;31.30;1.00
8591;DHT22;4333;48.322;14.340;2023-09-07T08:20:32;30.70;1.00
8591;DHT22;4333;48.322;14.340;2023-09-07T08:22:58;30.00;1.00
8591;DHT22;4333;48.322;14.340;2023-09-07T08:25:23;29.30;1.00
8591;DHT22;4333;48.322;14.340;2023-09-07T08:27:51;28.40;1.00
8591;DHT22;4333;48.322;14.340;2023-09-07T08:30:20;27.90;1.00
8591;DHT22;4333;48.322;14.340;2023-09-07T08:32:52;27.50;1.00
8591;DHT22;4333;48.322;14.340;2023-09-07T08:35:20;27.10;1.00
8591;DHT22;4333;48.322;14.340;2023-09-07T08:37:49;26.80;1.00
8591;DHT22;4333;48.322;14.340;2023-09-07T08:40:15;27.10;1.00
8591;DHT22;4333;48.322;14.340;2023-09-07T08:42:43;27.40;1.00
8591;DHT22;4333;48.322;14.340;2023-09-07T08:45:11;27.50;1.00
8591;DHT22;4333;48.322;14.340;2023-09-07T08:47:39;27.70;1.00
8591;DHT22;4333;48.322;14.340;2023-09-07T08:50:06;27.50;1.00
8591;DHT22;4333;48.322;14.340;2023-09-07T08:52:37;27.60;1.00
8591;DHT22;4333;48.322;14.340;2023-09-07T08:55:03;27.30;1.00
8591;DHT22;4333;48.322;14.340;2023-09-07T08:57:32;27.60;1.00
8591;DHT22;4333;48.322;14.340;2023-09-07T09:00:00;27.60;1.00
8591;DHT22;4333;48.322;14.340;2023-09-07T09:02:26;27.50;1.00
8591;DHT22;4333;48.322;14.340;2023-09-07T09:04:52;27.80;1.00
8591;DHT22;4333;48.322;14.340;2023-09-07T09:07:18;27.30;1.00
8591;DHT22;4333;48.322;14.340;2023-09-07T09:09:46;27.40;1.00
8591;DHT22;4333;48.322;14.340;2023-09-07T09:12:15;28.00;1.00
8591;DHT22;4333;48.322;14.340;2023-09-07T09:14:44;27.70;1.00
8591;DHT22;4333;48.322;14.340;2023-09-07T09:17:14;27.70;1.00
8591;DHT22;4333;48.322;14.340;2023-09-07T09:19:42;27.90;1.00
8591;DHT22;4333;48.322;14.340;2023-09-07T09:22:11;27.40;1.00
8591;DHT22;4333;48.322;14.340;2023-09-07T09:24:38;27.20;1.00
8591;DHT22;4333;48.322;14.340;2023-09-07T09:27:04;27.00;1.00
8591;DHT22;4333;48.322;14.340;2023-09-07T09:29:32;27.10;1.00
8591;DHT22;4333;48.322;14.340;2023-09-07T09:32:03;27.40;1.00
8591;DHT22;4333;48.322;14.340;2023-09-07T09:34:37;27.10;1.00
8591;DHT22;4333;48.322;14.340;2023-09-07T09:37:03;27.00;1.00
8591;DHT22;4333;48.322;14.340;2023-09-07T09:39:29;27.20;1.00
8591;DHT22;4333;48.322;14.340;2023-09-07T09:41:58;26.90;1.00
8591;DHT22;4333;48.322;14.340;2023-09-07T09:44:24;27.20;1.00
8591;DHT22;4333;48.322;14.340;2023-09-07T09:46:51;28.30;1.00
8591;DHT22;4333;48.322;14.340;2023-09-07T09:49:20;29.40;1.00
8591;DHT22;4333;48.322;14.340;2023-09-07T09:51:51;30.10;1.00
8591;DHT22;4333;48.322;14.340;2023-09-07T09:54:20;30.30;1.00
8591;DHT22;4333;48.322;14.340;2023-09-07T09:56:47;30.20;1.00
8591;DHT22;4333;48.322;14.340;2023-09-07T09:59:14;29.80;1.00
8591;DHT22;4333;48.322;14.340;2023-09-07T10:01:43;28.70;1.00
8591;DHT22;4333;48.322;14.340;2023-09-07T10:04:14;28.20;1.00
8591;DHT22;4333;48.322;14.340;2023-09-07T10:06:53;28.10;1.00
8591;DHT22;4333;48.322;14.340;2023-09-07T10:09:20;28.10;1.00
8591;DHT22;4333;48.322;14.340;2023-09-07T10:11:52;28.10;1.00
8591;DHT22;4333;48.322;14.340;2023-09-07T10:14:21;28.20;1.00
8591;DHT22;4333;48.322;14.340;2023-09-07T10:16:51;28.50;1.00
8591;DHT22;4333;48.322;14.340;2023-09-07T10:19:20;28.20;1.00
8591;DHT22;4333;48.322;14.340;2023-09-07T10:21:46;28.30;1.00
8591;DHT22;4333;48.322;14.340;2023-09-07T10:24:36;28.50;1.00
8591;DHT22;4333;48.322;14.340;2023-09-07T10:27:06;29.20;1.00
8591;DHT22;4333;48.322;14.340;2023-09-07T10:29:46;29.00;1.00
8591;DHT22;4333;48.322;14.340;2023-09-07T10:32:23;28.70;1.00
8591;DHT22;4333;48.322;14.340;2023-09-07T10:34:52;28.40;1.00
8591;DHT22;4333;48.322;14.340;2023-09-07T10:37:27;28.20;1.00
8591;DHT22;4333;48.322;14.340;2023-09-07T10:40:32;28.10;1.00
8591;DHT22;4333;48.322;14.340;2023-09-07T10:43:03;28.30;1.00
8591;DHT22;4333;48.322;14.340;2023-09-07T10:45:30;28.30;1.00
8591;DHT22;4333;48.322;14.340;2023-09-07T10:47:56;28.30;1.00
8591;DHT22;4333;48.322;14.340;2023-09-07T10:50:21;28.50;1.00
8591;DHT22;4333;48.322;14.340;2023-09-07T10:56:09;28.30;1.00
8591;DHT22;4333;48.322;14.340;2023-09-07T10:59:15;28.40;1.00
8591;DHT22;4333;48.322;14.340;2023-09-07T11:01:47;28.80;1.00
8591;DHT22;4333;48.322;14.340;2023-09-07T11:04:16;29.10;1.00
8591;DHT22;4333;48.322;14.340;2023-09-07T11:06:51;29.50;1.00
8591;DHT22;4333;48.322;14.340;2023-09-07T11:09:31;29.40;1.00
8591;DHT22;4333;48.322;14.340;2023-09-07T11:12:06;29.10;1.00
8591;DHT22;4333;48.322;14.340;2023-09-07T11:14:32;28.70;1.00
8591;DHT22;4333;48.322;14.340;2023-09-07T11:17:06;28.50;1.00
8591;DHT22;4333;48.322;14.340;2023-09-07T11:20:17;28.40;1.00
8591;DHT22;4333;48.322;14.340;2023-09-07T11:26:11;28.60;1.00
8591;DHT22;4333;48.322;14.340;2023-09-07T11:28:59;28.70;1.00
8591;DHT22;4333;48.322;14.340;2023-09-07T11:31:48;28.80;1.00
8591;DHT22;4333;48.322;14.340;2023-09-07T11:34:49;28.90;1.00
8591;DHT22;4333;48.322;14.340;2023-09-07T11:37:41;28.80;1.00
8591;DHT22;4333;48.322;14.340;2023-09-07T11:40:10;28.90;1.00
8591;DHT22;4333;48.322;14.340;2023-09-07T11:42:48;29.00;1.00
8591;DHT22;4333;48.322;14.340;2023-09-07T11:45:15;29.00;1.00
8591;DHT22;4333;48.322;14.340;2023-09-07T11:47:46;29.00;1.00
8591;DHT22;4333;48.322;14.340;2023-09-07T11:50:17;29.00;1.00
8591;DHT22;4333;48.322;14.340;2023-09-07T11:53:14;29.30;1.00
8591;DHT22;4333;48.322;14.340;2023-09-07T11:55:40;29.60;1.00
8591;DHT22;4333;48.322;14.340;2023-09-07T11:58:09;29.20;1.00
8591;DHT22;4333;48.322;14.340;2023-09-07T12:00:34;29.10;1.00
8591;DHT22;4333;48.322;14.340;2023-09-07T12:03:00;29.00;1.00
8591;DHT22;4333;48.322;14.340;2023-09-07T12:05:45;28.90;1.00
8591;DHT22;4333;48.322;14.340;2023-09-07T12:08:18;28.80;1.00
8591;DHT22;4333;48.322;14.340;2023-09-07T12:10:43;29.10;1.00
8591;DHT22;4333;48.322;14.340;2023-09-07T12:13:35;29.30;1.00
8591;DHT22;4333;48.322;14.340;2023-09-07T12:16:03;29.40;1.00
8591;DHT22;4333;48.322;14.340;2023-09-07T12:18:34;29.50;1.00
8591;DHT22;4333;48.322;14.340;2023-09-07T12:21:08;29.50;1.00
8591;DHT22;4333;48.322;14.340;2023-09-07T12:23:36;29.40;1.00
8591;DHT22;4333;48.322;14.340;2023-09-07T12:26:05;29.40;1.00
8591;DHT22;4333;48.322;14.340;2023-09-07T12:28:34;29.30;1.00
8591;DHT22;4333;48.322;14.340;2023-09-07T12:31:03;29.20;1.00
8591;DHT22;4333;48.322;14.340;2023-09-07T12:33:33;29.30;1.00
8591;DHT22;4333;48.322;14.340;2023-09-07T12:36:01;29.50;1.00
8591;DHT22;4333;48.322;14.340;2023-09-07T12:38:29;29.50;1.00
8591;DHT22;4333;48.322;14.340;2023-09-07T12:41:08;29.40;1.00
8591;DHT22;4333;48.322;14.340;2023-09-07T12:43:54;29.40;1.00
8591;DHT22;4333;48.322;14.340;2023-09-07T12:46:20;29.50;1.00
8591;DHT22;4333;48.322;14.340;2023-09-07T12:48:46;29.40;1.00
8591;DHT22;4333;48.322;14.340;2023-09-07T12:51:13;29.40;1.00
8591;DHT22;4333;48.322;14.340;2023-09-07T12:53:38;29.40;1.00
8591;DHT22;4333;48.322;14.340;2023-09-07T12:56:08;29.50;1.00
8591;DHT22;4333;48.322;14.340;2023-09-07T12:58:46;29.60;1.00
8591;DHT22;4333;48.322;14.340;2023-09-07T13:01:25;29.40;1.00
8591;DHT22;4333;48.322;14.340;2023-09-07T13:03:56;29.20;1.00
8591;DHT22;4333;48.322;14.340;2023-09-07T13:06:32;29.20;1.00
8591;DHT22;4333;48.322;14.340;2023-09-07T13:08:58;29.30;1.00
8591;DHT22;4333;48.322;14.340;2023-09-07T13:11:26;29.40;1.00
8591;DHT22;4333;48.322;14.340;2023-09-07T13:13:58;29.40;1.00
8591;DHT22;4333;48.322;14.340;2023-09-07T13:16:24;29.40;1.00
8591;DHT22;4333;48.322;14.340;2023-09-07T13:18:50;29.50;1.00
8591;DHT22;4333;48.322;14.340;2023-09-07T13:21:21;29.50;1.00
8591;DHT22;4333;48.322;14.340;2023-09-07T13:23:49;29.40;1.00
8591;DHT22;4333;48.322;14.340;2023-09-07T13:26:20;29.20;1.00
8591;DHT22;4333;48.322;14.340;2023-09-07T13:28:48;29.30;1.00
8591;DHT22;4333;48.322;14.340;2023-09-07T13:31:14;29.50;1.00
8591;DHT22;4333;48.322;14.340;2023-09-07T13:33:43;29.40;1.00
8591;DHT22;4333;48.322;14.340;2023-09-07T13:36:11;29.60;1.00
8591;DHT22;4333;48.322;14.340;2023-09-07T13:38:42;29.60;1.00
8591;DHT22;4333;48.322;14.340;2023-09-07T13:41:13;29.60;1.00
8591;DHT22;4333;48.322;14.340;2023-09-07T13:43:42;29.60;1.00
8591;DHT22;4333;48.322;14.340;2023-09-07T13:46:07;29.70;1.00
8591;DHT22;4333;48.322;14.340;2023-09-07T13:48:36;29.70;1.00
8591;DHT22;4333;48.322;14.340;2023-09-07T13:51:04;30.10;1.00
8591;DHT22;4333;48.322;14.340;2023-09-07T13:53:41;30.30;1.00
8591;DHT22;4333;48.322;14.340;2023-09-07T13:56:07;29.70;1.00
8591;DHT22;4333;48.322;14.340;2023-09-07T13:58:37;29.50;1.00
8591;DHT22;4333;48.322;14.340;2023-09-07T14:01:06;29.60;1.00
8591;DHT22;4333;48.322;14.340;2023-09-07T14:03:37;29.90;1.00
8591;DHT22;4333;48.322;14.340;2023-09-07T14:06:12;29.80;1.00
8591;DHT22;4333;48.322;14.340;2023-09-07T14:08:53;29.90;1.00
8591;DHT22;4333;48.322;14.340;2023-09-07T14:11:34;30.00;1.00
8591;DHT22;4333;48.322;14.340;2023-09-07T14:16:56;30.30;1.00
8591;DHT22;4333;48.322;14.340;2023-09-07T14:19:27;30.50;1.00
8591;DHT22;4333;48.322;14.340;2023-09-07T14:22:14;30.80;1.00
8591;DHT22;4333;48.322;14.340;2023-09-07T14:24:48;30.50;1.00
8591;DHT22;4333;48.322;14.340;2023-09-07T14:27:25;30.10;1.00
8591;DHT22;4333;48.322;14.340;2023-09-07T14:29:51;29.80;1.00
8591;DHT22;4333;48.322;14.340;2023-09-07T14:32:20;29.70;1.00
8591;DHT22;4333;48.322;14.340;2023-09-07T14:34:59;29.70;1.00
8591;DHT22;4333;48.322;14.340;2023-09-07T14:37:39;30.10;1.00
8591;DHT22;4333;48.322;14.340;2023-09-07T14:40:26;30.60;1.00
8591;DHT22;4333;48.322;14.340;2023-09-07T14:42:52;30.30;1.00
8591;DHT22;4333;48.322;14.340;2023-09-07T14:45:21;30.30;1.00
8591;DHT22;4333;48.322;14.340;2023-09-07T14:47:52;30.20;1.00
8591;DHT22;4333;48.322;14.340;2023-09-07T14:50:36;29.90;1.00
8591;DHT22;4333;48.322;14.340;2023-09-07T14:53:06;29.80;1.00
8591;DHT22;4333;48.322;14.340;2023-09-07T14:55:32;29.90;1.00
8591;DHT22;4333;48.322;14.340;2023-09-07T14:58:10;29.80;1.00
8591;DHT22;4333;48.322;14.340;2023-09-07T15:00:36;29.60;1.00
8591;DHT22;4333;48.322;14.340;2023-09-07T15:03:05;29.40;1.00
8591;DHT22;4333;48.322;14.340;2023-09-07T15:05:42;29.40;1.00
8591;DHT22;4333;48.322;14.340;2023-09-07T15:08:08;29.40;1.00
8591;DHT22;4333;48.322;14.340;2023-09-07T15:10:40;29.40;1.00
8591;DHT22;4333;48.322;14.340;2023-09-07T15:13:08;29.20;1.00
8591;DHT22;4333;48.322;14.340;2023-09-07T15:15:38;29.20;1.00
8591;DHT22;4333;48.322;14.340;2023-09-07T15:18:07;29.30;1.00
8591;DHT22;4333;48.322;14.340;2023-09-07T15:20:33;29.50;1.00
8591;DHT22;4333;48.322;14.340;2023-09-07T15:23:08;29.20;1.00
8591;DHT22;4333;48.322;14.340;2023-09-07T15:25:38;28.90;1.00
8591;DHT22;4333;48.322;14.340;2023-09-07T15:28:04;28.90;1.00
8591;DHT22;4333;48.322;14.340;2023-09-07T15:30:34;28.80;1.00
8591;DHT22;4333;48.322;14.340;2023-09-07T15:33:00;28.70;1.00
8591;DHT22;4333;48.322;14.340;2023-09-07T15:35:26;28.80;1.00
8591;DHT22;4333;48.322;14.340;2023-09-07T15:37:53;28.90;1.00
8591;DHT22;4333;48.322;14.340;2023-09-07T15:40:20;28.70;1.00
8591;DHT22;4333;48.322;14.340;2023-09-07T15:42:48;28.70;1.00
8591;DHT22;4333;48.322;14.340;2023-09-07T15:45:14;28.70;1.00
8591;DHT22;4333;48.322;14.340;2023-09-07T15:48:00;28.70;1.00
8591;DHT22;4333;48.322;14.340;2023-09-07T15:50:28;28.80;1.00
8591;DHT22;4333;48.322;14.340;2023-09-07T15:53:02;28.80;1.00
8591;DHT22;4333;48.322;14.340;2023-09-07T15:55:28;28.70;1.00
8591;DHT22;4333;48.322;14.340;2023-09-07T15:57:54;28.80;1.00
8591;DHT22;4333;48.322;14.340;2023-09-07T16:00:20;28.90;1.00
8591;DHT22;4333;48.322;14.340;2023-09-07T16:02:46;28.80;1.00
8591;DHT22;4333;48.322;14.340;2023-09-07T16:05:14;28.60;1.00
8591;DHT22;4333;48.322;14.340;2023-09-07T16:07:45;28.40;1.00
8591;DHT22;4333;48.322;14.340;2023-09-07T16:10:17;28.40;1.00
8591;DHT22;4333;48.322;14.340;2023-09-07T16:12:45;28.40;1.00
8591;DHT22;4333;48.322;14.340;2023-09-07T16:15:16;28.50;1.00
8591;DHT22;4333;48.322;14.340;2023-09-07T16:17:42;28.20;1.00